Time;durP1;ratioP1;P1;durP2;ratioP2;P2;SDS_P1;SDS_P2;PMS_P1;PMS_P2;Temp;Humidity;BMP_temperature;BMP_pressure;BME280_temperature;BME280_humidity;BME280_pressure;Samples;Min_cycle;Max_cycle;Signal;HPM_P1;HPM_P2
2023/10/21 00:00:41;;;;;;;;;1.00;1.00;;;;;20.62;100.00;97962.03;2068772;28;44983;-58
2023/10/21 00:01:41;;;;;;;;;1.67;1.67;;;;;20.62;100.00;97951.25;2084134;28;45933;-58
2023/10/21 00:02:42;;;;;;;;;1.00;1.00;;;;;20.62;100.00;97952.09;2070415;28;46943;-58
2023/10/21 00:03:42;;;;;;;;;1.00;1.00;;;;;20.63;100.00;97953.78;2062022;28;46420;-58
2023/10/21 00:04:43;;;;;;;;;3.00;1.67;;;;;20.63;100.00;97955.63;2060278;28;46303;-58
2023/10/21 00:05:43;;;;;;;;;2.00;2.00;;;;;20.61;100.00;97949.56;2062577;28;46182;-56
2023/10/21 00:06:44;;;;;;;;;2.00;2.00;;;;;20.60;100.00;97954.09;2070374;28;46696;-57
2023/10/21 00:07:44;;;;;;;;;2.00;1.00;;;;;20.59;100.00;97952.44;2068002;28;45525;-54
2023/10/21 00:08:45;;;;;;;;;1.00;1.00;;;;;20.59;100.00;97960.50;2068624;28;46353;-55
2023/10/21 00:09:45;;;;;;;;;2.00;2.00;;;;;20.58;100.00;97956.09;2071178;28;46216;-57
2023/10/21 00:10:45;;;;;;;;;1.00;1.00;;;;;20.57;100.00;97962.50;2067804;28;46558;-57
2023/10/21 00:11:45;;;;;;;;;1.33;1.33;;;;;20.59;100.00;97959.66;2056821;28;45778;-58
2023/10/21 00:12:46;;;;;;;;;1.67;1.67;;;;;20.57;100.00;97960.66;2066833;28;46309;-56
2023/10/21 00:13:46;;;;;;;;;2.00;2.00;;;;;20.57;100.00;97965.19;2056569;28;45850;-56
2023/10/21 00:14:47;;;;;;;;;7.33;7.33;;;;;20.57;100.00;97970.56;2066586;28;46323;-55
2023/10/21 00:15:47;;;;;;;;;3.00;3.00;;;;;20.57;100.00;97963.34;2062263;28;46433;-56
2023/10/21 00:16:49;;;;;;;;;3.33;3.33;;;;;20.58;100.00;97966.88;2059966;28;46759;-57
2023/10/21 00:17:50;;;;;;;;;3.25;3.25;;;;;20.61;100.00;97968.44;2069229;28;46306;-57
2023/10/21 00:18:50;;;;;;;;;1.33;1.00;;;;;20.61;100.00;97966.56;2063146;28;46181;-54
2023/10/21 00:19:50;;;;;;;;;2.00;2.00;;;;;20.62;100.00;97972.81;2072060;28;46593;-57
2023/10/21 00:20:55;;;;;;;;;1.00;1.00;;;;;20.62;100.00;97972.81;2068498;28;46003;-57
2023/10/21 00:21:55;;;;;;;;;1.00;1.00;;;;;20.62;100.00;97970.13;2063273;28;47029;-55
2023/10/21 00:22:55;;;;;;;;;3.00;1.00;;;;;20.64;100.00;97970.78;2066585;28;46544;-57
2023/10/21 00:23:56;;;;;;;;;0.00;0.00;;;;;20.63;100.00;97971.78;2073866;28;46635;-54
2023/10/21 00:24:56;;;;;;;;;0.67;0.67;;;;;20.62;100.00;97973.66;2063688;28;46766;-58
2023/10/21 00:26:00;;;;;;;;;1.00;1.00;;;;;20.62;100.00;97975.50;2082737;28;47021;-59
2023/10/21 00:27:01;;;;;;;;;0.00;0.00;;;;;20.60;100.00;97983.75;2065196;28;46918;-58
2023/10/21 00:28:03;;;;;;;;;0.00;0.00;;;;;20.60;100.00;97972.13;2068539;28;46579;-58
2023/10/21 00:29:04;;;;;;;;;0.75;0.75;;;;;20.59;100.00;97989.31;2066973;28;46840;-58
2023/10/21 00:30:05;;;;;;;;;0.00;0.00;;;;;20.56;100.00;97991.28;2076467;28;45832;-58
2023/10/21 00:31:06;;;;;;;;;1.50;1.00;;;;;20.58;100.00;98001.91;2069663;28;46067;-53
2023/10/21 00:32:06;;;;;;;;;0.00;0.00;;;;;20.56;100.00;98003.91;2081351;28;46696;-53
2023/10/21 00:33:06;;;;;;;;;0.00;0.00;;;;;20.54;100.00;98004.09;2103413;28;46389;-57
2023/10/21 00:34:07;;;;;;;;;0.00;0.00;;;;;20.50;100.00;98012.66;2105854;28;46637;-56
2023/10/21 00:35:07;;;;;;;;;0.00;0.00;;;;;20.48;100.00;98001.22;2084673;28;46419;-57
2023/10/21 00:36:07;;;;;;;;;0.00;0.00;;;;;20.46;100.00;98006.78;2084321;28;46256;-58
2023/10/21 00:37:08;;;;;;;;;0.00;0.00;;;;;20.45;100.00;98009.59;2068821;28;46650;-58
2023/10/21 00:38:08;;;;;;;;;0.00;0.00;;;;;20.44;100.00;98007.91;2059814;28;46473;-58
2023/10/21 00:39:10;;;;;;;;;0.00;0.00;;;;;20.46;100.00;98008.63;2087702;28;46384;-55
2023/10/21 00:40:11;;;;;;;;;0.00;0.00;;;;;20.43;100.00;98030.47;2080733;28;46788;-58
2023/10/21 00:41:12;;;;;;;;;0.00;0.00;;;;;20.43;100.00;98025.06;2090167;28;46869;-57
2023/10/21 00:42:12;;;;;;;;;0.00;0.00;;;;;20.42;100.00;98034.16;2082549;28;46709;-57
2023/10/21 00:43:13;;;;;;;;;0.00;0.00;;;;;20.35;100.00;98043.88;2086463;28;46606;-57
2023/10/21 00:44:13;;;;;;;;;0.00;0.00;;;;;20.33;100.00;98045.88;2095747;28;46966;-59
2023/10/21 00:45:14;;;;;;;;;0.00;0.00;;;;;20.29;100.00;98032.72;2077361;28;46608;-58
2023/10/21 00:46:18;;;;;;;;;0.00;0.00;;;;;20.31;100.00;98037.09;2094126;28;46602;-55
2023/10/21 00:47:19;;;;;;;;;0.00;0.00;;;;;20.27;100.00;98053.59;2071500;28;46748;-56
2023/10/21 00:48:20;;;;;;;;;0.00;0.00;;;;;20.26;100.00;98051.06;2069544;28;46767;-57
2023/10/21 00:49:20;;;;;;;;;0.00;0.00;;;;;20.32;100.00;98054.94;2094547;28;46260;-58
2023/10/21 00:50:21;;;;;;;;;0.00;0.00;;;;;20.34;100.00;98061.06;2080781;28;46595;-56
2023/10/21 00:51:21;;;;;;;;;0.00;0.00;;;;;20.35;100.00;98062.72;2075229;28;46528;-57
2023/10/21 00:52:22;;;;;;;;;0.00;0.00;;;;;20.28;100.00;98062.50;2094379;28;46448;-58
2023/10/21 00:53:23;;;;;;;;;0.00;0.00;;;;;20.26;100.00;98059.97;2068626;28;46125;-56
2023/10/21 00:54:27;;;;;;;;;0.00;0.00;;;;;20.29;100.00;98072.28;2061406;28;46859;-58
2023/10/21 00:55:27;;;;;;;;;0.00;0.00;;;;;20.27;100.00;98083.22;2085599;28;46927;-58
2023/10/21 00:56:28;;;;;;;;;0.00;0.00;;;;;20.29;100.00;98083.06;2079149;28;46523;-56
2023/10/21 00:57:29;;;;;;;;;0.00;0.00;;;;;20.27;100.00;98085.06;2081980;28;45575;-57
2023/10/21 00:58:32;;;;;;;;;0.00;0.00;;;;;20.28;100.00;98089.44;2080398;28;46756;-57
2023/10/21 00:59:33;;;;;;;;;0.00;0.00;;;;;20.27;100.00;98085.91;2085249;28;46835;-57
2023/10/21 01:00:33;;;;;;;;;0.00;0.00;;;;;20.25;100.00;98096.00;2099993;27;46184;-53
2023/10/21 01:01:37;;;;;;;;;0.00;0.00;;;;;20.25;100.00;98101.38;2060903;28;46916;-57
2023/10/21 01:02:39;;;;;;;;;0.00;0.00;;;;;20.22;100.00;98099.00;2091048;28;46766;-57
2023/10/21 01:03:40;;;;;;;;;0.00;0.00;;;;;20.23;100.00;98113.31;2078730;28;46379;-56
2023/10/21 01:04:41;;;;;;;;;0.00;0.00;;;;;20.20;100.00;98109.09;2059370;28;45957;-58
2023/10/21 01:05:42;;;;;;;;;0.00;0.00;;;;;20.20;100.00;98106.41;2084180;28;46203;-57
2023/10/21 01:06:43;;;;;;;;;0.00;0.00;;;;;20.20;100.00;98108.22;2086554;28;46769;-58
2023/10/21 01:07:43;;;;;;;;;0.00;0.00;;;;;20.19;100.00;98107.38;2081915;28;46488;-55
2023/10/21 01:08:47;;;;;;;;;0.00;0.00;;;;;20.19;100.00;98111.94;2100461;28;46312;-56
2023/10/21 01:09:48;;;;;;;;;0.75;0.00;;;;;20.17;100.00;98111.25;2081869;28;46561;-58
2023/10/21 01:10:48;;;;;;;;;0.00;0.00;;;;;20.16;100.00;98115.78;2089818;28;46816;-57
2023/10/21 01:11:48;;;;;;;;;0.00;0.00;;;;;20.19;100.00;98122.69;2096066;28;46410;-58
2023/10/21 01:12:49;;;;;;;;;0.00;0.00;;;;;20.14;100.00;98119.66;2076458;28;46489;-57
2023/10/21 01:13:51;;;;;;;;;0.00;0.00;;;;;20.15;100.00;98121.34;2067054;28;46238;-58
2023/10/21 01:14:52;;;;;;;;;0.00;0.00;;;;;20.13;100.00;98126.03;2082399;28;46008;-57
2023/10/21 01:15:53;;;;;;;;;0.00;0.00;;;;;20.11;100.00;98119.97;2081795;28;47133;-57
2023/10/21 01:16:53;;;;;;;;;0.00;0.00;;;;;20.11;100.00;98128.03;2092957;28;46544;-57
2023/10/21 01:17:53;;;;;;;;;0.00;0.00;;;;;20.18;100.00;98127.25;2074422;28;46289;-57
2023/10/21 01:18:53;;;;;;;;;0.00;0.00;;;;;20.11;100.00;98125.34;2088700;28;46748;-53
2023/10/21 01:19:59;;;;;;;;;0.00;0.00;;;;;20.17;100.00;98122.00;2086334;28;46580;-55
2023/10/21 01:21:01;;;;;;;;;0.00;0.00;;;;;20.07;100.00;98135.56;2076991;28;46744;-58
2023/10/21 01:22:01;;;;;;;;;0.00;0.00;;;;;20.06;100.00;98131.19;2103251;28;46608;-59
2023/10/21 01:23:02;;;;;;;;;0.00;0.00;;;;;20.06;100.00;98133.88;2071101;28;46336;-56
2023/10/21 01:24:02;;;;;;;;;0.00;0.00;;;;;20.09;100.00;98140.81;2057741;28;45814;-57
2023/10/21 01:25:04;;;;;;;;;0.00;0.00;;;;;20.12;100.00;98143.19;2071650;28;46287;-58
2023/10/21 01:26:04;;;;;;;;;0.00;0.00;;;;;20.23;100.00;98153.72;2070830;28;46866;-59
2023/10/21 01:27:05;;;;;;;;;0.00;0.00;;;;;20.05;100.00;98148.34;2072023;28;46234;-57
2023/10/21 01:28:05;;;;;;;;;0.00;0.00;;;;;20.09;100.00;98138.13;2085569;28;46779;-56
2023/10/21 01:29:09;;;;;;;;;0.00;0.00;;;;;20.13;100.00;98151.13;2067888;28;46235;-59
2023/10/21 01:30:10;;;;;;;;;0.00;0.00;;;;;20.12;100.00;98146.72;2070796;28;46377;-56
2023/10/21 01:31:10;;;;;;;;;0.00;0.00;;;;;20.02;100.00;98161.28;2080572;28;46527;-53
2023/10/21 01:32:11;;;;;;;;;0.00;0.00;;;;;20.06;100.00;98155.41;2098770;28;45545;-57
2023/10/21 01:33:11;;;;;;;;;0.00;0.00;;;;;20.09;100.00;98162.34;2081707;28;46459;-57
2023/10/21 01:34:12;;;;;;;;;0.00;0.00;;;;;20.11;100.00;98163.88;2065587;28;46267;-57
2023/10/21 01:35:14;;;;;;;;;0.00;0.00;;;;;19.96;100.00;98160.06;2071119;28;46826;-56
2023/10/21 01:36:14;;;;;;;;;0.00;0.00;;;;;19.99;100.00;98174.06;2078308;28;46706;-54
2023/10/21 01:37:15;;;;;;;;;0.00;0.00;;;;;20.05;100.00;98164.50;2062395;28;46426;-57
2023/10/21 01:38:16;;;;;;;;;0.00;0.00;;;;;19.96;100.00;98168.13;2059436;28;46420;-54
2023/10/21 01:39:18;;;;;;;;;0.00;0.00;;;;;19.95;100.00;98190.69;2077145;28;46107;-57
2023/10/21 01:40:19;;;;;;;;;0.00;0.00;;;;;19.93;100.00;98168.41;2105674;28;46359;-56
2023/10/21 01:41:19;;;;;;;;;0.00;0.00;;;;;19.96;100.00;98176.22;2104425;28;46386;-57
2023/10/21 01:42:19;;;;;;;;;0.00;0.00;;;;;19.96;100.00;98176.22;2104002;28;46312;-58
2023/10/21 01:43:20;;;;;;;;;0.00;0.00;;;;;19.95;100.00;98174.53;2105375;28;46188;-58
2023/10/21 01:44:20;;;;;;;;;0.00;0.00;;;;;19.91;100.00;98183.88;2105097;27;46331;-58
2023/10/21 01:45:21;;;;;;;;;0.00;0.00;;;;;19.95;100.00;98187.97;2104795;28;45380;-58
2023/10/21 01:46:21;;;;;;;;;0.00;0.00;;;;;19.96;100.00;98181.59;2083438;27;45960;-59
2023/10/21 01:47:22;;;;;;;;;0.00;0.00;;;;;19.95;100.00;98188.84;2086475;28;46221;-60
2023/10/21 01:48:22;;;;;;;;;0.00;0.00;;;;;19.96;100.00;98192.38;2065395;28;46930;-59
2023/10/21 01:49:22;;;;;;;;;0.00;0.00;;;;;19.95;100.00;98190.69;2100034;28;46309;-56
2023/10/21 01:50:23;;;;;;;;;0.00;0.00;;;;;19.97;100.00;98194.91;2105157;28;46003;-58
2023/10/21 01:51:23;;;;;;;;;0.00;0.00;;;;;19.97;100.00;98183.28;2071788;28;46316;-58
2023/10/21 01:52:24;;;;;;;;;0.00;0.00;;;;;19.99;100.00;98208.19;2062753;28;45643;-55
2023/10/21 01:53:24;;;;;;;;;0.00;0.00;;;;;19.98;100.00;98199.28;2056449;28;46207;-57
2023/10/21 01:54:25;;;;;;;;;0.00;0.00;;;;;19.98;100.00;98190.34;2105042;28;46368;-57
2023/10/21 01:55:26;;;;;;;;;0.00;0.00;;;;;19.97;100.00;98192.22;2081962;27;46754;-56
2023/10/21 01:56:27;;;;;;;;;0.00;0.00;;;;;19.98;100.00;98199.28;2062683;28;46904;-54
2023/10/21 01:57:27;;;;;;;;;0.00;0.00;;;;;19.96;100.00;98195.91;2100943;28;45786;-58
2023/10/21 01:58:29;;;;;;;;;5.00;5.00;;;;;19.97;100.00;98191.38;2093875;28;46834;-58
2023/10/21 01:59:30;;;;;;;;;1.50;1.50;;;;;19.95;100.00;98206.81;2104960;28;46302;-54
2023/10/21 02:00:30;;;;;;;;;0.33;0.33;;;;;19.93;100.00;98189.97;2080218;28;46248;-58
2023/10/21 02:01:30;;;;;;;;;0.00;0.00;;;;;19.87;100.00;98195.97;2073274;28;45474;-55
2023/10/21 02:02:31;;;;;;;;;0.00;0.00;;;;;19.94;100.00;98203.25;2071177;28;46165;-59
2023/10/21 02:03:31;;;;;;;;;0.00;0.00;;;;;19.94;100.00;98213.19;2073535;28;46242;-58
2023/10/21 02:04:32;;;;;;;;;0.00;0.00;;;;;19.95;100.00;98206.81;2071119;28;46535;-57
2023/10/21 02:05:32;;;;;;;;;0.00;0.00;;;;;19.92;100.00;98199.03;2071353;28;46583;-58
2023/10/21 02:06:32;;;;;;;;;0.00;0.00;;;;;19.90;100.00;98201.88;2068100;28;46558;-55
2023/10/21 02:07:39;;;;;;;;;0.00;0.00;;;;;19.92;100.00;98212.50;2071194;28;45993;-56
2023/10/21 02:08:39;;;;;;;;;0.00;0.00;;;;;19.92;100.00;98207.94;2078805;28;46574;-58
2023/10/21 02:09:39;;;;;;;;;0.00;0.00;;;;;19.91;100.00;98203.56;2100884;27;46744;-60
2023/10/21 02:10:41;;;;;;;;;0.00;0.00;;;;;19.91;100.00;98206.25;2090998;28;46121;-57
2023/10/21 02:11:41;;;;;;;;;0.00;0.00;;;;;19.92;100.00;98213.34;2083911;28;46255;-56
2023/10/21 02:12:41;;;;;;;;;0.00;0.00;;;;;19.92;100.00;98216.03;2056372;28;46414;-57
2023/10/21 02:13:41;;;;;;;;;0.00;0.00;;;;;19.93;100.00;98215.03;2080425;28;46529;-57
2023/10/21 02:14:42;;;;;;;;;0.00;0.00;;;;;19.94;100.00;98211.34;2084553;28;46755;-57
2023/10/21 02:15:42;;;;;;;;;0.00;0.00;;;;;19.94;100.00;98215.88;2094772;28;46390;-58
2023/10/21 02:16:42;;;;;;;;;1.00;0.00;;;;;20.00;100.00;98223.34;2074270;28;46305;-57
2023/10/21 02:17:46;;;;;;;;;1.00;0.00;;;;;20.01;100.00;98222.34;2082795;28;45891;-59
2023/10/21 02:18:46;;;;;;;;;0.00;0.00;;;;;20.02;100.00;98234.81;2089474;28;46786;-58
2023/10/21 02:19:58;;;;;;;;;0.00;0.00;;;;;20.03;100.00;98225.72;2073595;28;46837;-57
2023/10/21 02:20:59;;;;;;;;;0.00;0.00;;;;;20.01;100.00;98235.81;2073307;28;46559;-59
2023/10/21 02:21:59;;;;;;;;;0.00;0.00;;;;;20.01;100.00;98230.44;2067429;28;46385;-59
2023/10/21 02:23:00;;;;;;;;;0.00;0.00;;;;;20.02;100.00;98233.97;2055894;28;46109;-59
2023/10/21 02:24:00;;;;;;;;;0.00;0.00;;;;;20.00;100.00;98239.50;2061688;28;46915;-59
2023/10/21 02:25:01;;;;;;;;;0.00;0.00;;;;;19.98;100.00;98238.81;2062467;28;46328;-56
2023/10/21 02:26:06;;;;;;;;;0.00;0.00;;;;;19.98;100.00;98244.19;2062235;28;45105;-58
2023/10/21 02:27:06;;;;;;;;;0.00;0.00;;;;;19.97;100.00;98246.03;2061661;28;46265;-57
2023/10/21 02:28:07;;;;;;;;;0.00;0.00;;;;;19.97;100.00;98248.75;2059738;28;46539;-57
2023/10/21 02:29:07;;;;;;;;;0.00;0.00;;;;;19.97;100.00;98243.34;2059182;28;46672;-56
2023/10/21 02:30:14;;;;;;;;;1.00;0.00;;;;;19.97;100.00;98250.59;2095131;28;45708;-57
2023/10/21 02:31:14;;;;;;;;;0.00;0.00;;;;;19.96;100.00;98251.59;2095772;28;45800;-59
2023/10/21 02:32:15;;;;;;;;;0.00;0.00;;;;;19.95;100.00;98239.97;2095571;28;46419;-58
2023/10/21 02:33:15;;;;;;;;;0.00;0.00;;;;;19.94;100.00;98250.88;2078421;28;46023;-55
2023/10/21 02:34:16;;;;;;;;;0.00;0.00;;;;;19.89;100.00;98263.94;2077838;28;46835;-55
2023/10/21 02:35:16;;;;;;;;;0.00;0.00;;;;;19.85;100.00;98247.25;2096001;28;46839;-57
2023/10/21 02:36:16;;;;;;;;;0.00;0.00;;;;;19.82;100.00;98254.78;2090712;28;46250;-58
2023/10/21 02:37:17;;;;;;;;;0.00;0.00;;;;;19.79;100.00;98255.09;2086893;28;46391;-56
2023/10/21 02:38:17;;;;;;;;;0.00;0.00;;;;;19.78;100.00;98253.41;2095738;28;46067;-56
2023/10/21 02:39:17;;;;;;;;;0.00;0.00;;;;;19.76;100.00;98244.63;2083170;28;46029;-58
2023/10/21 02:40:18;;;;;;;;;0.00;0.00;;;;;19.74;100.00;98263.63;2084716;28;46291;-55
2023/10/21 02:41:18;;;;;;;;;0.00;0.00;;;;;19.76;100.00;98261.63;2086975;28;45505;-58
2023/10/21 02:42:20;;;;;;;;;0.00;0.00;;;;;19.74;100.00;98262.78;2088020;28;46298;-57
2023/10/21 02:43:20;;;;;;;;;0.00;0.00;;;;;19.74;100.00;98265.47;2082109;28;47101;-58
2023/10/21 02:44:20;;;;;;;;;0.00;0.00;;;;;19.75;100.00;98261.78;2085715;28;46562;-58
2023/10/21 02:45:21;;;;;;;;;0.00;0.00;;;;;19.75;100.00;98264.47;2090582;28;46286;-54
2023/10/21 02:46:21;;;;;;;;;0.00;0.00;;;;;19.72;100.00;98264.78;2097482;28;45627;-57
2023/10/21 02:47:21;;;;;;;;;0.00;0.00;;;;;19.74;100.00;98260.09;2098843;28;46211;-55
2023/10/21 02:48:22;;;;;;;;;0.00;0.00;;;;;19.74;100.00;98268.16;2095732;28;46732;-57
2023/10/21 02:49:22;;;;;;;;;0.00;0.00;;;;;19.73;100.00;98266.47;2095992;28;46163;-57
2023/10/21 02:50:22;;;;;;;;;0.00;0.00;;;;;19.74;100.00;98266.31;2096322;28;46465;-56
2023/10/21 02:51:22;;;;;;;;;0.00;0.00;;;;;19.74;100.00;98265.47;2095417;28;45238;-56
2023/10/21 02:52:23;;;;;;;;;0.00;0.00;;;;;19.74;100.00;98277.06;2096750;28;46596;-58
2023/10/21 02:53:23;;;;;;;;;0.00;0.00;;;;;19.73;100.00;98266.47;2095853;28;46552;-57
2023/10/21 02:54:23;;;;;;;;;0.00;0.00;;;;;19.69;100.00;98274.84;2096968;28;46443;-57
2023/10/21 02:55:27;;;;;;;;;0.00;0.00;;;;;19.71;100.00;98271.16;2096053;28;46795;-55
2023/10/21 02:56:27;;;;;;;;;0.00;0.00;;;;;19.71;100.00;98279.22;2094361;28;46236;-59
2023/10/21 02:57:29;;;;;;;;;0.00;0.00;;;;;19.71;100.00;98269.31;2096153;28;46464;-55
2023/10/21 02:58:29;;;;;;;;;0.00;0.00;;;;;19.71;100.00;98280.06;2094670;28;46822;-58
2023/10/21 02:59:30;;;;;;;;;0.00;0.00;;;;;19.69;100.00;98279.34;2095805;28;46354;-59
2023/10/21 03:00:31;;;;;;;;;0.00;0.00;;;;;19.68;100.00;98283.88;2095688;28;46457;-57
2023/10/21 03:01:31;;;;;;;;;0.00;0.00;;;;;19.66;100.00;98285.03;2095569;28;46806;-60
2023/10/21 03:02:31;;;;;;;;;0.00;0.00;;;;;19.67;100.00;98292.97;2104179;28;46197;-58
2023/10/21 03:03:31;;;;;;;;;0.00;0.00;;;;;19.68;100.00;98293.81;2103978;27;46738;-57
2023/10/21 03:04:32;;;;;;;;;0.00;0.00;;;;;19.68;100.00;98294.66;2103808;28;45797;-57
2023/10/21 03:05:32;;;;;;;;;0.00;0.00;;;;;19.67;100.00;98295.66;2071297;28;45602;-57
2023/10/21 03:06:32;;;;;;;;;0.00;0.00;;;;;19.66;100.00;98293.13;2058107;28;46006;-57
2023/10/21 03:07:33;;;;;;;;;0.00;0.00;;;;;19.64;100.00;98290.56;2070632;28;45737;-57
2023/10/21 03:08:35;;;;;;;;;0.00;0.00;;;;;19.63;100.00;98298.81;2077617;28;46062;-59
2023/10/21 03:09:35;;;;;;;;;0.00;0.00;;;;;19.61;100.00;98293.56;2105255;27;46943;-58
2023/10/21 03:10:37;;;;;;;;;0.00;0.00;;;;;19.60;100.00;98294.56;2078685;27;46454;-57
2023/10/21 03:11:37;;;;;;;;;0.00;0.00;;;;;19.60;100.00;98297.25;2066138;28;46313;-59
2023/10/21 03:12:38;;;;;;;;;0.00;0.00;;;;;19.59;100.00;98300.94;2079903;28;45577;-57
2023/10/21 03:13:39;;;;;;;;;0.67;0.00;;;;;19.61;100.00;98300.78;2086875;27;46138;-58
2023/10/21 03:14:40;;;;;;;;;0.00;0.00;;;;;19.59;100.00;98308.19;2077598;28;46839;-59
2023/10/21 03:15:40;;;;;;;;;0.25;0.00;;;;;19.59;100.00;98309.03;2066800;28;46497;-57
2023/10/21 03:16:41;;;;;;;;;0.00;0.00;;;;;19.55;100.00;98312.13;2083972;28;46361;-58
2023/10/21 03:17:41;;;;;;;;;0.00;0.00;;;;;19.54;100.00;98308.56;2087880;28;46275;-58
2023/10/21 03:18:45;;;;;;;;;0.00;0.00;;;;;19.51;100.00;98314.25;2070618;28;46679;-56
2023/10/21 03:19:45;;;;;;;;;0.00;0.00;;;;;19.52;100.00;98318.63;2075772;28;46894;-57
2023/10/21 03:20:49;;;;;;;;;0.00;0.00;;;;;19.52;100.00;98307.03;2071672;28;45936;-59
2023/10/21 03:21:50;;;;;;;;;0.00;0.00;;;;;19.49;100.00;98312.72;2069564;28;46435;-57
2023/10/21 03:22:50;;;;;;;;;0.00;0.00;;;;;19.45;100.00;98320.25;2067069;28;46191;-56
2023/10/21 03:23:50;;;;;;;;;0.00;0.00;;;;;19.45;100.00;98314.00;2070793;28;46521;-54
2023/10/21 03:24:51;;;;;;;;;0.00;0.00;;;;;19.46;100.00;98326.47;2070376;28;46815;-55
2023/10/21 03:25:59;;;;;;;;;0.00;0.00;;;;;19.45;100.00;98324.78;2088383;28;46378;-56
2023/10/21 03:26:59;;;;;;;;;0.00;0.00;;;;;19.46;100.00;98321.09;2104241;28;46932;-55
2023/10/21 03:28:00;;;;;;;;;0.00;0.00;;;;;19.45;100.00;98325.63;2056217;28;46395;-58
2023/10/21 03:29:00;;;;;;;;;1.00;0.00;;;;;19.46;100.00;98329.16;2067097;28;45055;-58
2023/10/21 03:30:00;;;;;;;;;0.00;0.00;;;;;19.45;100.00;98328.31;2062428;28;46381;-58
2023/10/21 03:31:06;;;;;;;;;0.00;0.00;;;;;19.46;100.00;98327.31;2061932;28;46567;-58
2023/10/21 03:32:07;;;;;;;;;0.00;0.00;;;;;19.48;100.00;98335.22;2062231;28;46271;-58
2023/10/21 03:33:07;;;;;;;;;0.00;0.00;;;;;19.46;100.00;98327.31;2062790;28;46690;-56
2023/10/21 03:34:08;;;;;;;;;0.00;0.00;;;;;19.45;100.00;98328.31;2103561;28;46653;-56
2023/10/21 03:35:09;;;;;;;;;0.00;0.00;;;;;19.44;100.00;98332.00;2103580;28;46592;-57
2023/10/21 03:36:10;;;;;;;;;0.00;0.00;;;;;19.44;100.00;98332.00;2066055;28;46259;-56
2023/10/21 03:37:10;;;;;;;;;0.00;0.00;;;;;19.44;100.00;98341.88;2062296;28;45407;-59
2023/10/21 03:38:11;;;;;;;;;0.00;0.00;;;;;19.42;100.00;98340.19;2061862;28;46869;-59
2023/10/21 03:39:12;;;;;;;;;0.00;0.00;;;;;19.41;100.00;98334.97;2061179;28;45992;-58
2023/10/21 03:40:12;;;;;;;;;0.00;0.00;;;;;19.41;100.00;98343.03;2061716;28;46451;-59
2023/10/21 03:41:15;;;;;;;;;0.00;0.00;;;;;19.41;100.00;98334.97;2061982;28;46139;-59
2023/10/21 03:42:15;;;;;;;;;0.00;0.00;;;;;19.41;100.00;98345.72;2069801;28;46913;-57
2023/10/21 03:43:16;;;;;;;;;0.00;0.00;;;;;19.44;100.00;98340.06;2069871;28;46383;-55
2023/10/21 03:44:16;;;;;;;;;2.00;0.00;;;;;19.44;100.00;98352.63;2054597;28;45457;-58
2023/10/21 03:45:17;;;;;;;;;0.00;0.00;;;;;19.44;100.00;98350.81;2092138;28;46379;-57
2023/10/21 03:46:17;;;;;;;;;0.67;0.00;;;;;19.42;100.00;98350.09;2091444;28;45533;-58
2023/10/21 03:47:18;;;;;;;;;0.00;0.00;;;;;19.43;100.00;98357.16;2060500;28;46494;-56
2023/10/21 03:48:19;;;;;;;;;1.00;0.00;;;;;19.42;100.00;98352.78;2062143;28;46799;-57
2023/10/21 03:49:19;;;;;;;;;1.25;0.00;;;;;19.42;100.00;98355.47;2062510;28;45629;-58
2023/10/21 03:50:19;;;;;;;;;0.00;0.00;;;;;19.39;100.00;98359.31;2061536;28;46181;-57
2023/10/21 03:51:20;;;;;;;;;0.00;0.00;;;;;19.35;100.00;98357.91;2095190;28;46245;-56
2023/10/21 03:52:20;;;;;;;;;1.00;0.00;;;;;19.37;100.00;98355.94;2095141;28;46839;-55
2023/10/21 03:53:20;;;;;;;;;2.00;0.00;;;;;19.39;100.00;98355.78;2062264;28;46249;-55
2023/10/21 03:54:20;;;;;;;;;0.00;0.00;;;;;19.36;100.00;98356.94;2058411;28;46268;-58
2023/10/21 03:55:21;;;;;;;;;0.00;0.00;;;;;19.36;100.00;98364.16;2059186;28;46109;-60
2023/10/21 03:56:21;;;;;;;;;0.00;0.00;;;;;19.34;100.00;98360.75;2061368;28;46207;-56
2023/10/21 03:57:21;;;;;;;;;0.00;0.00;;;;;19.37;100.00;98372.06;2063139;28;46358;-59
2023/10/21 03:58:22;;;;;;;;;0.00;0.00;;;;;19.39;100.00;98371.91;2063212;28;46032;-57
2023/10/21 03:59:22;;;;;;;;;0.00;0.00;;;;;19.38;100.00;98378.28;2062556;28;46930;-57
2023/10/21 04:00:22;;;;;;;;;0.00;0.00;;;;;19.38;100.00;98379.13;2063474;28;47032;-54
2023/10/21 04:01:23;;;;;;;;;0.33;0.00;;;;;19.37;100.00;98376.59;2062503;28;46271;-57
2023/10/21 04:02:23;;;;;;;;;0.67;0.00;;;;;19.37;100.00;98384.66;2055813;28;46477;-58
2023/10/21 04:03:25;;;;;;;;;0.00;0.00;;;;;19.38;100.00;98378.28;2054359;28;46471;-58
2023/10/21 04:04:25;;;;;;;;;0.00;0.00;;;;;19.39;100.00;98385.38;2061786;28;46269;-58
2023/10/21 04:05:25;;;;;;;;;0.00;0.00;;;;;19.38;100.00;98386.34;2056486;28;45898;-57
2023/10/21 04:06:26;;;;;;;;;0.00;0.00;;;;;19.38;100.00;98389.91;2056751;28;46670;-56
2023/10/21 04:07:26;;;;;;;;;0.00;0.00;;;;;19.37;100.00;98390.88;2063309;28;46446;-57
2023/10/21 04:08:28;;;;;;;;;0.00;0.00;;;;;19.35;100.00;98389.34;2064424;28;45610;-58
2023/10/21 04:09:28;;;;;;;;;0.00;0.00;;;;;19.29;100.00;98384.53;2070031;28;46728;-58
2023/10/21 04:10:28;;;;;;;;;0.00;0.00;;;;;19.40;100.00;98395.13;2059475;28;46175;-58
2023/10/21 04:11:29;;;;;;;;;0.00;0.00;;;;;19.45;100.00;98395.56;2093870;28;46424;-54
2023/10/21 04:12:29;;;;;;;;;0.00;0.00;;;;;19.47;100.00;98398.09;2088995;28;45505;-57
2023/10/21 04:13:29;;;;;;;;;0.00;0.00;;;;;19.45;100.00;98395.56;2063477;28;46342;-58
2023/10/21 04:14:30;;;;;;;;;0.00;0.00;;;;;19.46;100.00;98391.03;2063413;28;46218;-58
2023/10/21 04:15:31;;;;;;;;;0.00;0.00;;;;;19.46;100.00;98391.88;2062900;28;46516;-60
2023/10/21 04:16:32;;;;;;;;;0.00;0.00;;;;;19.44;100.00;98404.63;2063559;28;46596;-57
2023/10/21 04:17:32;;;;;;;;;0.00;0.00;;;;;19.40;100.00;98404.03;2063210;28;45971;-57
2023/10/21 04:18:33;;;;;;;;;0.00;0.00;;;;;19.45;100.00;98397.41;2063287;28;46251;-57
2023/10/21 04:19:33;;;;;;;;;0.00;0.00;;;;;19.44;100.00;98407.31;2062465;28;45556;-56
2023/10/21 04:20:33;;;;;;;;;0.00;0.00;;;;;19.44;100.00;98406.44;2063505;28;45707;-58
2023/10/21 04:21:34;;;;;;;;;0.00;0.00;;;;;19.38;100.00;98399.81;2070470;28;46433;-55
2023/10/21 04:22:34;;;;;;;;;0.00;0.00;;;;;19.31;100.00;98406.75;2065344;28;45966;-58
2023/10/21 04:23:36;;;;;;;;;0.00;0.00;;;;;19.29;100.00;98406.91;2055286;28;46443;-57
2023/10/21 04:24:37;;;;;;;;;0.00;0.00;;;;;19.26;100.00;98409.88;2055016;28;46561;-56
2023/10/21 04:25:37;;;;;;;;;0.00;0.00;;;;;19.23;100.00;98410.19;2055314;28;47031;-58
2023/10/21 04:26:37;;;;;;;;;0.00;0.00;;;;;19.21;100.00;98416.69;2055487;28;45485;-57
2023/10/21 04:27:38;;;;;;;;;0.00;0.00;;;;;19.24;100.00;98413.72;2054515;28;45564;-56
2023/10/21 04:28:38;;;;;;;;;0.00;0.00;;;;;19.24;100.00;98419.09;2064677;28;46151;-57
2023/10/21 04:29:38;;;;;;;;;0.00;0.00;;;;;19.27;100.00;98413.41;2063276;28;46125;-58
2023/10/21 04:30:39;;;;;;;;;0.00;0.00;;;;;19.25;100.00;98420.78;2063292;28;46201;-60
2023/10/21 04:31:39;;;;;;;;;0.00;0.00;;;;;19.25;100.00;98416.25;2063168;28;46266;-58
2023/10/21 04:32:40;;;;;;;;;0.67;0.00;;;;;19.25;100.00;98424.31;2063806;28;46524;-57
2023/10/21 04:33:40;;;;;;;;;0.00;0.00;;;;;19.25;100.00;98427.00;2069831;28;45780;-59
2023/10/21 04:34:41;;;;;;;;;0.00;0.00;;;;;19.27;100.00;98418.78;2055312;28;46235;-57
2023/10/21 04:35:41;;;;;;;;;0.00;0.00;;;;;19.29;100.00;98414.13;2062936;28;46234;-59
2023/10/21 04:36:41;;;;;;;;;0.00;0.00;;;;;19.33;100.00;98434.38;2069738;28;45572;-57
2023/10/21 04:37:42;;;;;;;;;0.00;0.00;;;;;19.30;100.00;98419.34;2061438;28;45832;-53
2023/10/21 04:38:44;;;;;;;;;0.00;0.00;;;;;19.31;100.00;98429.13;2061343;28;46253;-57
2023/10/21 04:39:44;;;;;;;;;0.00;0.00;;;;;19.30;100.00;98421.19;2055113;28;46048;-58
2023/10/21 04:40:45;;;;;;;;;0.00;0.00;;;;;19.31;100.00;98420.19;2055088;28;46741;-56
2023/10/21 04:41:48;;;;;;;;;0.00;0.00;;;;;19.34;100.00;98428.84;2054859;28;46563;-55
2023/10/21 04:42:48;;;;;;;;;1.00;0.00;;;;;19.35;100.00;98433.22;2055063;28;46692;-58